Skip to main content.
Our real time weather data display below is updated continuously via our 24/7 live data feed.
 TIME   TEMPERATURE   WINDSPEED   DIRECTION   HUMIDITY   BAROMETER   RAINFALL 
9:40 18.0°C (64.4°F) 11.1 kmh (6.9 mph) WSW 88% 1008.1hPa (29.77 inHg) 2.6mm (0.10 in.)
8:35 18.0°C (64.4 °F) 11.1 kmh (6.9 mph) N 93% 1007.1hPa (29.74 inHg) 2.6mm (0.10 in.)
7:35 19.0°C (66.2 °F) 14.8 kmh (9.2 mph) N 88% 1006.1hPa (29.71 inHg) 2.6mm (0.10 in.)
6:35 20.0°C (68.0 °F) 14.8 kmh (9.2 mph) N 82% 1006.1hPa (29.71 inHg) 2.6mm (0.10 in.)
5:35 20.0°C (68.0 °F) 20.4 kmh (12.7 mph) N 82% 1006.1hPa (29.71 inHg) 2.6mm (0.10 in.)
4:35 22.0°C (71.6 °F) 22.2 kmh (13.8 mph) N 73% 1004.1hPa (29.65 inHg) 2.6mm (0.10 in.)
3:35 22.0°C (71.6 °F) 16.7 kmh (10.4 mph) N 73% 1006.1hPa (29.71 inHg) 2.6mm (0.10 in.)
2:35 22.0°C (71.6 °F) 27.8 kmh (17.3 mph) N 73% 1007.1hPa (29.74 inHg) 2.0mm (0.08 in.)
1:35 21.0°C (69.8 °F) 25.9 kmh (16.1 mph) N 88% 1007.1hPa (29.74 inHg) 2.0mm (0.08 in.)
12:35 19.0°C (66.2 °F) 13.0 kmh (8.1 mph) N 88% 1008.1hPa (29.77 inHg) 2.0mm (0.08 in.)
11:35 20.0°C (68.0 °F) 18.5 kmh (11.5 mph) N 77% 1008.1hPa (29.77 inHg) 0.6mm (0.02 in.)
10:35 20.0°C (68.0 °F) 29.6 kmh (18.4 mph) N 82% 1008.1hPa (29.77 inHg) 0.0mm (0.00 in.)
9:35 19.0°C (66.2 °F) 27.8 kmh (17.3 mph) N 82% 1008.1hPa (29.77 inHg) 0.0mm (0.00 in.)
8:35 19.0°C (66.2 °F) 24.1 kmh (15.0 mph) N 77% 1008.1hPa (29.77 inHg) 0.0mm (0.00 in.)
7:35 19.0°C (66.2 °F) 24.1 kmh (15.0 mph) N 77% 1008.1hPa (29.77 inHg) 0.0mm (0.00 in.)
6:35 19.0°C (66.2 °F) 29.6 kmh (18.4 mph) N 72% 1008.1hPa (29.77 inHg) 0.0mm (0.00 in.)
5:35 19.0°C (66.2 °F) 33.3 kmh (20.7 mph) N 72% 1007.1hPa (29.74 inHg) 0.0mm (0.00 in.)
4:35 19.0°C (66.2 °F) 38.9 kmh (24.2 mph) N 72% 1007.1hPa (29.74 inHg) 0.0mm (0.00 in.)
3:35 19.0°C (66.2 °F) 33.3 kmh (20.7 mph) N 72% 1008.1hPa (29.77 inHg) 0.0mm (0.00 in.)
2:35 19.0°C (66.2 °F) 38.9 kmh (24.2 mph) N 72% 1009.1hPa (29.80 inHg) 0.0mm (0.00 in.)
1:35 19.0°C (66.2 °F) 33.3 kmh (20.7 mph) N 72% 1009.1hPa (29.80 inHg) 0.0mm (0.00 in.)
12:35 19.0°C (66.2 °F) 38.9 kmh (24.2 mph) N 72% 1010.2hPa (29.83 inHg) 0.0mm (0.00 in.)
11:35 19.0°C (66.2 °F) 35.2 kmh (21.9 mph) N 77% 1010.8hPa (29.85 inHg) 0.0mm (0.00 in.)
10:35 19.0°C (66.2 °F) 27.8 kmh (17.3 mph) N 77% 1011.9hPa (29.88 inHg) 0.0mm (0.00 in.)